Time;durP1;ratioP1;P1;durP2;ratioP2;P2;SDS_P1;SDS_P2;PMS_P1;PMS_P2;Temp;Humidity;BMP_temperature;BMP_pressure;BME280_temperature;BME280_humidity;BME280_pressure;Samples;Min_cycle;Max_cycle;Signal;HPM_P1;HPM_P2
2023/08/14 00:01:49;;;;;;;2.53;2.33;;;20.10;99.90;;;;;;5073243;28;20036;-63
2023/08/14 00:04:21;;;;;;;3.13;2.42;;;20.10;99.90;;;;;;5054356;28;20562;-62
2023/08/14 00:06:54;;;;;;;4.75;2.47;;;20.00;99.90;;;;;;5056835;28;20419;-63
2023/08/14 00:09:21;;;;;;;4.97;2.70;;;20.00;99.90;;;;;;5069025;28;20512;-62
2023/08/14 00:11:53;;;;;;;5.25;3.35;;;20.00;99.90;;;;;;5072410;28;20040;-63
2023/08/14 00:14:25;;;;;;;5.05;2.83;;;19.90;99.90;;;;;;5071699;28;20543;-63
2023/08/14 00:16:57;;;;;;;5.03;3.00;;;19.90;99.90;;;;;;5054514;28;20381;-63
2023/08/14 00:19:29;;;;;;;3.08;2.78;;;19.80;99.90;;;;;;5072448;28;20528;-63
2023/08/14 00:22:00;;;;;;;3.45;2.83;;;19.70;99.90;;;;;;5055472;28;20053;-63
2023/08/14 00:24:32;;;;;;;7.05;3.10;;;19.70;99.90;;;;;;5072858;28;20039;-63
2023/08/14 00:27:04;;;;;;;8.07;3.75;;;19.70;99.90;;;;;;5073416;28;20051;-63
2023/08/14 00:29:36;;;;;;;3.33;2.97;;;19.70;99.90;;;;;;5050752;28;20119;-63
2023/08/14 00:32:08;;;;;;;4.13;2.78;;;19.70;99.90;;;;;;5060159;28;20053;-64
2023/08/14 00:34:41;;;;;;;7.03;3.17;;;19.70;99.90;;;;;;5043104;28;20116;-64
2023/08/14 00:37:13;;;;;;;4.45;2.78;;;19.60;99.90;;;;;;5056835;28;20037;-64
2023/08/14 00:39:45;;;;;;;6.28;2.95;;;19.60;99.90;;;;;;5057075;28;20041;-64
2023/08/14 00:42:12;;;;;;;4.22;3.22;;;19.60;99.90;;;;;;5055411;28;20056;-63
2023/08/14 00:44:44;;;;;;;3.53;2.58;;;19.60;99.90;;;;;;5056251;28;20032;-64
2023/08/14 00:47:15;;;;;;;4.45;2.88;;;19.50;99.90;;;;;;5051351;28;20108;-63
2023/08/14 00:49:47;;;;;;;2.97;2.60;;;19.40;99.90;;;;;;5058496;28;20064;-64
2023/08/14 00:52:19;;;;;;;3.25;2.95;;;19.40;99.90;;;;;;5074918;28;20041;-64
2023/08/14 00:54:52;;;;;;;3.10;2.70;;;19.30;99.90;;;;;;5070418;28;20044;-64
2023/08/14 00:57:24;;;;;;;5.28;3.03;;;19.40;99.90;;;;;;5056188;28;20097;-64
2023/08/14 00:59:56;;;;;;;2.85;2.40;;;19.40;99.90;;;;;;5053557;28;20032;-64
2023/08/14 01:02:29;;;;;;;4.15;2.67;;;19.40;99.90;;;;;;5069183;28;20084;-64
2023/08/14 01:04:56;;;;;;;3.03;2.72;;;19.40;99.90;;;;;;5051977;28;20060;-63
2023/08/14 01:07:24;;;;;;;4.38;2.80;;;19.40;99.90;;;;;;5068409;28;20215;-63
2023/08/14 01:09:56;;;;;;;;;;;19.40;99.90;;;;;;5046404;28;20531;-63
2023/08/14 01:12:38;;;;;;;4.55;2.75;;;19.40;99.90;;;;;;5051852;28;19927;-63
2023/08/14 01:15:28;;;;;;;4.22;2.45;;;19.40;99.90;;;;;;5072223;28;20508;-63
2023/08/14 01:18:03;;;;;;;4.45;3.20;;;19.40;99.90;;;;;;5054138;28;20599;-63
2023/08/14 01:20:33;;;;;;;3.92;3.55;;;19.50;99.90;;;;;;5046248;28;20119;-63
2023/08/14 01:23:25;;;;;;;3.78;2.80;;;19.50;99.90;;;;;;5051227;28;20033;-62
2023/08/14 01:26:00;;;;;;;3.42;3.13;;;19.50;99.90;;;;;;5053796;28;20049;-63
2023/08/14 01:28:28;;;;;;;4.88;2.80;;;19.50;99.90;;;;;;5063308;28;20836;-63
2023/08/14 01:31:02;;;;;;;4.32;2.85;;;19.50;99.90;;;;;;5046591;28;20060;-63
2023/08/14 01:33:34;;;;;;;4.45;3.08;;;19.50;99.90;;;;;;5069720;28;20037;-62
2023/08/14 01:36:34;;;;;;;4.40;4.00;;;19.50;99.90;;;;;;5054826;28;20045;-63
2023/08/14 01:39:09;;;;;;;4.57;4.18;;;19.40;99.90;;;;;;5071764;28;20072;-63
2023/08/14 01:42:11;;;;;;;5.20;4.70;;;19.40;99.90;;;;;;5044432;28;20040;-62
2023/08/14 01:44:45;;;;;;;7.13;4.32;;;19.40;99.90;;;;;;5068297;28;20046;-63
2023/08/14 01:47:17;;;;;;;5.70;5.15;;;19.30;99.90;;;;;;5053957;28;20792;-63
2023/08/14 01:49:52;;;;;;;7.25;5.05;;;19.20;99.90;;;;;;5053615;28;20045;-63
2023/08/14 01:52:24;;;;;;;4.97;4.57;;;19.30;99.90;;;;;;5051716;28;20050;-64
2023/08/14 01:54:51;;;;;;;4.82;3.85;;;19.20;99.90;;;;;;5058029;28;20037;-64
2023/08/14 01:57:22;;;;;;;4.97;4.10;;;19.30;99.90;;;;;;5070970;28;20033;-65
2023/08/14 01:59:54;;;;;;;7.50;4.72;;;19.30;99.90;;;;;;5054308;28;20495;-63
2023/08/14 02:02:26;;;;;;;4.18;3.33;;;19.30;99.90;;;;;;5067848;28;20044;-63
2023/08/14 02:04:53;;;;;;;5.90;4.10;;;19.30;99.90;;;;;;5056260;28;20064;-64
2023/08/14 02:07:25;;;;;;;5.25;3.72;;;19.30;99.90;;;;;;5039742;28;20063;-64
2023/08/14 02:09:57;;;;;;;5.50;4.00;;;19.30;99.90;;;;;;5056898;28;20055;-63
2023/08/14 02:12:30;;;;;;;4.95;3.75;;;19.30;99.90;;;;;;5040001;28;20123;-64
2023/08/14 02:15:07;;;;;;;3.83;3.15;;;19.30;99.90;;;;;;5054311;28;20049;-63
2023/08/14 02:17:40;;;;;;;3.20;2.88;;;19.30;99.90;;;;;;5055969;28;20033;-64
2023/08/14 02:20:08;;;;;;;4.18;3.22;;;19.30;99.90;;;;;;5073823;28;20040;-64
2023/08/14 02:22:39;;;;;;;4.15;2.80;;;19.20;99.90;;;;;;5057285;28;20087;-63
2023/08/14 02:25:11;;;;;;;3.75;3.20;;;19.20;99.90;;;;;;5064301;28;20079;-63
2023/08/14 02:27:43;;;;;;;4.60;3.05;;;19.10;99.90;;;;;;5056312;28;20048;-65
2023/08/14 02:30:10;;;;;;;6.05;3.60;;;19.10;99.90;;;;;;5056841;28;20156;-63
2023/08/14 02:32:43;;;;;;;4.93;4.38;;;19.10;99.90;;;;;;5063203;28;20048;-63
2023/08/14 02:35:10;;;;;;;3.85;3.38;;;19.10;99.90;;;;;;5064434;28;20395;-63
2023/08/14 02:37:37;;;;;;;8.70;3.30;;;19.10;99.90;;;;;;5046813;28;20131;-63
2023/08/14 02:40:09;;;;;;;7.00;3.22;;;19.10;99.90;;;;;;5040024;28;20518;-63
2023/08/14 02:42:36;;;;;;;3.92;3.08;;;19.10;99.90;;;;;;5050707;28;20040;-63
2023/08/14 02:45:08;;;;;;;3.92;3.38;;;19.10;99.90;;;;;;5059097;28;20048;-63
2023/08/14 02:47:40;;;;;;;6.10;3.63;;;19.10;99.90;;;;;;5054263;28;20050;-64
2023/08/14 02:50:12;;;;;;;5.28;3.05;;;19.10;99.90;;;;;;5048716;28;20053;-63
2023/08/14 02:52:43;;;;;;;5.50;3.30;;;19.10;99.90;;;;;;5046456;28;20385;-63
2023/08/14 02:55:15;;;;;;;4.18;3.78;;;19.10;99.90;;;;;;5046607;28;20044;-63
2023/08/14 02:57:47;;;;;;;6.22;4.30;;;19.10;99.90;;;;;;5048698;28;20469;-63
2023/08/14 03:00:20;;;;;;;4.65;4.03;;;19.10;99.90;;;;;;5043431;28;20108;-63
2023/08/14 03:02:52;;;;;;;4.70;3.78;;;19.10;99.90;;;;;;5051402;28;20119;-65
2023/08/14 03:05:24;;;;;;;5.65;4.22;;;19.10;99.90;;;;;;5066565;28;20124;-63
2023/08/14 03:07:55;;;;;;;7.25;3.97;;;19.00;99.90;;;;;;5051196;28;20048;-63
2023/08/14 03:10:27;;;;;;;5.30;3.75;;;19.00;99.90;;;;;;5049039;28;20063;-63
2023/08/14 03:13:00;;;;;;;6.60;3.85;;;19.00;99.90;;;;;;5049399;28;20048;-63
2023/08/14 03:15:32;;;;;;;5.13;3.30;;;19.00;99.90;;;;;;5051575;28;20056;-63
2023/08/14 03:18:05;;;;;;;4.25;3.47;;;19.00;99.90;;;;;;5049453;28;20064;-63
2023/08/14 03:20:31;;;;;;;6.53;4.00;;;19.00;99.90;;;;;;5063146;28;20047;-63
2023/08/14 03:23:03;;;;;;;4.05;3.65;;;19.00;99.90;;;;;;5049818;28;20047;-63
2023/08/14 03:25:35;;;;;;;7.00;3.80;;;19.00;99.90;;;;;;5063474;28;20669;-63
2023/08/14 03:28:07;;;;;;;5.50;4.03;;;19.00;99.90;;;;;;5063425;28;20036;-63
2023/08/14 03:30:43;;;;;;;7.00;5.43;;;19.00;99.90;;;;;;5047479;28;20056;-63
2023/08/14 03:33:16;;;;;;;6.10;5.20;;;19.00;99.90;;;;;;5052306;28;20464;-62
2023/08/14 03:35:52;;;;;;;7.03;4.78;;;18.90;99.90;;;;;;5052139;28;20045;-63
2023/08/14 03:38:24;;;;;;;5.53;4.97;;;18.90;99.90;;;;;;5056654;28;20127;-63
2023/08/14 03:40:56;;;;;;;7.35;4.63;;;18.80;99.90;;;;;;5072108;28;20040;-63
2023/08/14 03:43:28;;;;;;;5.38;4.88;;;18.70;99.90;;;;;;5071165;28;20044;-62
2023/08/14 03:45:59;;;;;;;5.47;4.82;;;18.70;99.90;;;;;;5052909;28;20095;-63
2023/08/14 03:48:31;;;;;;;7.47;4.80;;;18.70;99.90;;;;;;5055525;28;20045;-63
2023/08/14 03:51:03;;;;;;;8.38;5.25;;;18.60;99.90;;;;;;5040238;28;20135;-63
2023/08/14 03:53:35;;;;;;;4.53;4.13;;;18.70;99.90;;;;;;5069763;28;20047;-63
2023/08/14 03:56:07;;;;;;;5.20;4.70;;;18.70;99.90;;;;;;5059954;28;20049;-63
2023/08/14 03:58:39;;;;;;;5.23;4.30;;;18.70;99.90;;;;;;5052894;28;20080;-63
2023/08/14 04:01:12;;;;;;;7.57;5.10;;;18.80;99.90;;;;;;5072333;28;20419;-63
2023/08/14 04:03:44;;;;;;;4.93;4.43;;;18.80;99.90;;;;;;5052940;28;20045;-63
2023/08/14 04:06:19;;;;;;;5.22;4.72;;;18.70;99.90;;;;;;5056061;28;20083;-63
2023/08/14 04:08:51;;;;;;;6.68;4.88;;;18.70;99.90;;;;;;5056782;28;20049;-63
2023/08/14 04:11:22;;;;;;;7.43;4.78;;;18.70;99.90;;;;;;5049322;28;20040;-63
2023/08/14 04:13:54;;;;;;;4.97;4.47;;;18.70;99.90;;;;;;5055878;28;20424;-63
2023/08/14 04:16:21;;;;;;;5.82;4.70;;;18.70;99.90;;;;;;5058443;28;20128;-63
2023/08/14 04:18:53;;;;;;;4.80;4.30;;;18.70;99.90;;;;;;5048195;28;20040;-63
2023/08/14 04:21:24;;;;;;;5.72;4.50;;;18.70;99.90;;;;;;5052472;28;20041;-63
2023/08/14 04:23:56;;;;;;;4.90;4.47;;;18.70;99.90;;;;;;5069893;28;20136;-63
2023/08/14 04:26:28;;;;;;;7.60;5.20;;;18.70;99.90;;;;;;5055601;28;20033;-63
2023/08/14 04:29:01;;;;;;;6.28;4.10;;;18.60;99.90;;;;;;5068474;28;20041;-62
2023/08/14 04:31:37;;;;;;;4.93;4.40;;;18.70;99.90;;;;;;5070733;28;20478;-63
2023/08/14 04:34:10;;;;;;;5.10;4.60;;;18.70;99.90;;;;;;5048540;28;20056;-63
2023/08/14 04:36:39;;;;;;;5.22;4.28;;;18.70;99.90;;;;;;5051552;28;20105;-63
2023/08/14 04:39:12;;;;;;;6.55;4.30;;;18.70;99.90;;;;;;5052383;28;20037;-63
2023/08/14 04:41:44;;;;;;;5.90;4.30;;;18.60;99.90;;;;;;5060058;28;20075;-63
2023/08/14 04:44:15;;;;;;;5.28;4.30;;;18.60;99.90;;;;;;5054736;28;20082;-63
2023/08/14 04:46:50;;;;;;;5.63;4.82;;;18.60;99.90;;;;;;5070894;28;20183;-63
2023/08/14 04:49:22;;;;;;;5.97;4.50;;;18.70;99.90;;;;;;5051969;28;20045;-63
2023/08/14 04:51:49;;;;;;;7.32;4.43;;;18.70;99.90;;;;;;5057038;28;20040;-63
2023/08/14 04:54:21;;;;;;;5.93;4.45;;;18.70;99.90;;;;;;5043469;28;20055;-63
2023/08/14 04:56:53;;;;;;;7.07;4.72;;;18.70;99.90;;;;;;5043932;28;20128;-63
2023/08/14 04:59:25;;;;;;;5.10;4.55;;;18.70;99.90;;;;;;5058500;28;20501;-63
2023/08/14 05:01:58;;;;;;;5.18;4.68;;;18.70;99.90;;;;;;5032965;28;20033;-63
2023/08/14 05:04:30;;;;;;;6.10;4.40;;;18.70;99.90;;;;;;5049181;28;20529;-63
2023/08/14 05:06:56;;;;;;;7.93;4.95;;;18.80;99.90;;;;;;5055122;28;20067;-63
2023/08/14 05:09:29;;;;;;;4.45;4.05;;;18.80;99.90;;;;;;5050108;28;20044;-63
2023/08/14 05:11:58;;;;;;;4.95;4.45;;;18.90;99.90;;;;;;5052906;28;20098;-63
2023/08/14 05:14:31;;;;;;;6.25;4.40;;;18.90;99.90;;;;;;5057368;28;20052;-62
2023/08/14 05:17:03;;;;;;;4.75;4.30;;;19.00;99.90;;;;;;5067106;28;20067;-63
2023/08/14 05:19:35;;;;;;;9.20;5.78;;;19.00;99.90;;;;;;5045400;28;20069;-63
2023/08/14 05:22:07;;;;;;;5.90;4.20;;;19.00;99.90;;;;;;5049309;28;20055;-63
2023/08/14 05:24:38;;;;;;;5.57;4.43;;;19.10;99.90;;;;;;5053895;28;20050;-63
2023/08/14 05:27:10;;;;;;;6.20;3.85;;;19.00;99.90;;;;;;5054700;28;20090;-63
2023/08/14 05:29:42;;;;;;;5.78;4.47;;;19.10;99.90;;;;;;5069183;28;20419;-63
2023/08/14 05:32:09;;;;;;;4.90;4.18;;;19.10;99.90;;;;;;5052988;28;20526;-63
2023/08/14 05:34:40;;;;;;;6.63;4.25;;;19.20;99.90;;;;;;5068145;28;20048;-63
2023/08/14 05:37:12;;;;;;;4.88;4.20;;;19.20;99.90;;;;;;5069857;28;20061;-63
2023/08/14 05:39:39;;;;;;;6.82;4.93;;;19.20;99.90;;;;;;5047540;28;20037;-63
2023/08/14 05:42:11;;;;;;;5.63;4.00;;;19.20;99.90;;;;;;5071950;28;20037;-63
2023/08/14 05:44:43;;;;;;;4.43;4.03;;;19.20;99.90;;;;;;5071967;28;20137;-63
2023/08/14 05:47:15;;;;;;;7.70;4.65;;;19.20;99.90;;;;;;5056189;28;20539;-63
2023/08/14 05:49:46;;;;;;;5.13;4.18;;;19.20;99.90;;;;;;5066946;28;20403;-63
2023/08/14 05:52:18;;;;;;;5.22;4.40;;;19.20;99.90;;;;;;5070723;28;20041;-63
2023/08/14 05:54:50;;;;;;;4.32;3.80;;;19.20;99.90;;;;;;5068523;28;20052;-63
2023/08/14 05:57:22;;;;;;;4.80;4.40;;;19.30;99.90;;;;;;5067641;28;20127;-63
2023/08/14 05:59:54;;;;;;;6.38;4.57;;;19.30;99.90;;;;;;5066708;28;20404;-63
2023/08/14 06:02:26;;;;;;;8.38;4.70;;;19.30;99.90;;;;;;5069814;28;20032;-62
2023/08/14 06:04:53;;;;;;;5.28;4.25;;;19.30;99.90;;;;;;5070009;28;20047;-63
2023/08/14 06:07:25;;;;;;;5.07;4.50;;;19.40;99.90;;;;;;5054645;28;20048;-63
2023/08/14 06:09:57;;;;;;;5.32;4.68;;;19.50;99.90;;;;;;5069584;28;20417;-63
2023/08/14 06:12:28;;;;;;;8.52;5.28;;;19.50;99.90;;;;;;5050337;28;20047;-63
2023/08/14 06:15:01;;;;;;;5.95;3.92;;;19.60;99.90;;;;;;5052224;28;20052;-63
2023/08/14 06:17:28;;;;;;;4.88;4.40;;;19.70;99.90;;;;;;5055909;28;20064;-63
2023/08/14 06:20:00;;;;;;;6.00;4.47;;;19.70;99.90;;;;;;5054377;28;20037;-63
2023/08/14 06:22:28;;;;;;;5.55;4.47;;;19.80;99.90;;;;;;5065703;28;20568;-63
2023/08/14 06:24:55;;;;;;;5.22;4.03;;;19.90;99.90;;;;;;5068614;28;20060;-63
2023/08/14 06:27:27;;;;;;;5.18;4.40;;;20.00;99.90;;;;;;5071631;28;20033;-63
2023/08/14 06:29:53;;;;;;;7.05;4.95;;;20.10;99.90;;;;;;5054178;28;20041;-62
2023/08/14 06:32:25;;;;;;;7.15;5.13;;;20.20;99.90;;;;;;5071231;28;20036;-62
2023/08/14 06:34:57;;;;;;;6.93;6.30;;;20.40;99.90;;;;;;5067510;28;20052;-62
2023/08/14 06:37:30;;;;;;;7.20;5.72;;;20.50;99.90;;;;;;5068185;28;20037;-64
2023/08/14 06:39:57;;;;;;;6.70;6.07;;;20.60;99.90;;;;;;5069428;28;20113;-62
2023/08/14 06:42:29;;;;;;;9.00;6.20;;;20.70;99.90;;;;;;5038965;28;20047;-62
2023/08/14 06:45:03;;;;;;;7.82;6.82;;;20.80;99.90;;;;;;5051169;28;20086;-62
2023/08/14 06:47:30;;;;;;;8.68;6.68;;;20.80;99.90;;;;;;5054235;28;20024;-62
2023/08/14 06:50:02;;;;;;;7.07;6.35;;;20.90;99.90;;;;;;5054083;28;20036;-62
2023/08/14 06:52:29;;;;;;;6.70;6.00;;;20.90;99.90;;;;;;5070185;28;20048;-62
2023/08/14 06:55:00;;;;;;;7.50;6.80;;;20.90;99.90;;;;;;5069275;28;20101;-62
2023/08/14 06:57:32;;;;;;;8.73;6.70;;;21.00;99.90;;;;;;5071171;28;20593;-63
2023/08/14 07:00:12;;;;;;;7.95;7.13;;;21.10;99.90;;;;;;5068893;28;20408;-62
2023/08/14 07:02:46;;;;;;;7.90;7.10;;;21.10;99.90;;;;;;5068086;28;20043;-62
2023/08/14 07:05:13;;;;;;;8.15;6.65;;;21.10;99.90;;;;;;5035370;28;20041;-62
2023/08/14 07:07:45;;;;;;;10.27;7.22;;;21.10;99.90;;;;;;5051387;28;20044;-63
2023/08/14 07:10:17;;;;;;;7.50;6.43;;;21.20;99.90;;;;;;5069800;28;20032;-62
2023/08/14 07:12:49;;;;;;;7.82;7.13;;;21.30;99.90;;;;;;5051899;28;20046;-63
2023/08/14 07:15:16;;;;;;;9.48;7.40;;;21.40;99.90;;;;;;5051445;28;20047;-62
2023/08/14 07:17:48;;;;;;;6.57;5.97;;;21.40;99.90;;;;;;5068296;28;20047;-62
2023/08/14 07:20:20;;;;;;;7.20;6.45;;;21.50;99.90;;;;;;5071222;28;20032;-62
2023/08/14 07:22:52;;;;;;;7.43;5.80;;;21.60;99.90;;;;;;5069096;28;20045;-62
2023/08/14 07:25:24;;;;;;;13.30;6.18;;;21.60;99.90;;;;;;5070313;28;20349;-62
2023/08/14 07:27:56;;;;;;;6.55;5.95;;;21.70;99.90;;;;;;5051080;28;20040;-62
2023/08/14 07:30:28;;;;;;;5.20;4.72;;;21.80;99.90;;;;;;5055103;28;20045;-62
2023/08/14 07:33:00;;;;;;;5.43;4.68;;;21.80;99.90;;;;;;5065220;28;20044;-63
2023/08/14 07:35:32;;;;;;;5.45;4.70;;;21.90;99.90;;;;;;5055763;28;20563;-62
2023/08/14 07:38:04;;;;;;;7.03;4.85;;;21.90;99.90;;;;;;5057226;28;20119;-62
2023/08/14 07:40:36;;;;;;;7.07;5.68;;;21.90;99.90;;;;;;5071301;28;20036;-62
2023/08/14 07:43:08;;;;;;;5.25;4.70;;;21.90;99.90;;;;;;5070621;28;20029;-62
2023/08/14 07:45:40;;;;;;;4.70;4.30;;;22.00;99.90;;;;;;5051856;28;20399;-62
2023/08/14 07:48:11;;;;;;;5.25;4.75;;;22.00;99.90;;;;;;5054276;28;20036;-62
2023/08/14 07:50:43;;;;;;;5.45;4.50;;;22.00;99.90;;;;;;5068344;28;20039;-62
2023/08/14 07:53:16;;;;;;;5.68;5.00;;;22.00;99.90;;;;;;5044444;28;20240;-62
2023/08/14 07:55:50;;;;;;;5.10;4.60;;;22.00;99.90;;;;;;5065194;28;20424;-62
2023/08/14 07:58:18;;;;;;;5.47;4.30;;;22.00;99.90;;;;;;5070554;28;20041;-62
2023/08/14 08:00:45;;;;;;;5.10;4.28;;;22.00;99.90;;;;;;5068415;28;20055;-62
2023/08/14 08:03:17;;;;;;;4.85;4.10;;;22.10;99.90;;;;;;5070165;28;20050;-62
2023/08/14 08:05:44;;;;;;;4.72;4.15;;;22.20;99.90;;;;;;5053129;28;20040;-62
2023/08/14 08:08:15;;;;;;;8.40;4.82;;;22.20;99.90;;;;;;5069495;28;20693;-63
2023/08/14 08:10:47;;;;;;;6.57;4.03;;;22.40;99.90;;;;;;5053840;28;20028;-63
2023/08/14 08:13:19;;;;;;;6.72;4.28;;;22.60;99.90;;;;;;5067386;28;20029;-63
2023/08/14 08:15:51;;;;;;;6.97;4.28;;;22.90;99.90;;;;;;5066693;28;20121;-62
2023/08/14 08:18:23;;;;;;;6.72;4.07;;;23.10;99.90;;;;;;5066756;28;20044;-63
2023/08/14 08:20:55;;;;;;;6.68;3.70;;;23.20;99.90;;;;;;5051626;28;20074;-62
2023/08/14 08:23:27;;;;;;;4.30;3.83;;;23.20;99.90;;;;;;5067642;28;20045;-62
2023/08/14 08:25:59;;;;;;;4.15;3.75;;;23.30;99.90;;;;;;5070386;28;20047;-62
2023/08/14 08:28:31;;;;;;;6.05;4.10;;;23.30;99.90;;;;;;5073013;28;20040;-62
2023/08/14 08:30:58;;;;;;;4.40;3.88;;;23.30;99.90;;;;;;5059304;28;20079;-62
2023/08/14 08:33:30;;;;;;;6.55;3.90;;;23.30;99.90;;;;;;5069839;28;20033;-62
2023/08/14 08:36:01;;;;;;;4.93;4.22;;;23.50;99.90;;;;;;5070881;28;20041;-62
2023/08/14 08:38:29;;;;;;;4.10;3.70;;;23.50;99.90;;;;;;5072175;28;20115;-63
2023/08/14 08:41:02;;;;;;;7.07;4.50;;;23.60;99.90;;;;;;5066937;28;20501;-62
2023/08/14 08:43:34;;;;;;;8.45;4.03;;;23.70;99.90;;;;;;5068984;28;20046;-62
2023/08/14 08:46:09;;;;;;;4.72;4.15;;;23.80;99.90;;;;;;5068867;28;20094;-62
2023/08/14 08:48:42;;;;;;;4.70;4.30;;;24.00;99.90;;;;;;5035220;28;20040;-63
2023/08/14 08:51:09;;;;;;;5.93;4.53;;;24.10;99.90;;;;;;5068329;28;20145;-62
2023/08/14 08:53:42;;;;;;;7.10;4.25;;;24.20;99.90;;;;;;5069916;28;20094;-62
2023/08/14 08:56:14;;;;;;;5.32;4.75;;;24.30;99.90;;;;;;5052478;28;20045;-62
2023/08/14 08:58:46;;;;;;;6.32;4.57;;;24.40;99.90;;;;;;5069825;28;20036;-62
2023/08/14 09:01:21;;;;;;;4.43;4.03;;;24.50;99.90;;;;;;5070046;28;20040;-62
2023/08/14 09:03:53;;;;;;;6.35;4.43;;;24.60;99.90;;;;;;5049532;28;20140;-62
2023/08/14 09:06:25;;;;;;;5.80;5.05;;;24.70;99.90;;;;;;5052339;28;20053;-62
2023/08/14 09:08:57;;;;;;;9.15;4.55;;;24.70;99.90;;;;;;5069774;28;20040;-62
2023/08/14 09:11:25;;;;;;;4.53;4.13;;;24.70;99.90;;;;;;5072474;28;20048;-62
2023/08/14 09:13:57;;;;;;;4.35;3.92;;;24.70;99.90;;;;;;5051745;28;20408;-62
2023/08/14 09:16:28;;;;;;;4.43;4.00;;;24.70;99.90;;;;;;5067021;28;20040;-62
2023/08/14 09:19:01;;;;;;;3.85;3.47;;;24.70;99.90;;;;;;5052616;28;20025;-63
2023/08/14 09:21:33;;;;;;;3.78;3.38;;;24.70;99.90;;;;;;5054572;28;20048;-62
2023/08/14 09:24:05;;;;;;;5.72;3.30;;;24.80;99.90;;;;;;5072735;28;20040;-62
2023/08/14 09:26:37;;;;;;;4.45;2.97;;;24.80;99.90;;;;;;5064497;28;20532;-62
2023/08/14 09:29:09;;;;;;;4.78;3.00;;;25.00;99.90;;;;;;5068182;28;20051;-62
2023/08/14 09:31:45;;;;;;;3.25;2.95;;;25.10;99.90;;;;;;5067706;28;20041;-62
2023/08/14 09:34:20;;;;;;;2.80;2.60;;;25.10;99.90;;;;;;5069287;28;20047;-62
2023/08/14 09:36:52;;;;;;;2.65;2.42;;;25.30;99.90;;;;;;5069655;28;20136;-62
2023/08/14 09:39:19;;;;;;;2.92;2.63;;;25.50;99.90;;;;;;5035190;28;20453;-62
2023/08/14 09:41:51;;;;;;;4.15;2.83;;;25.70;99.90;;;;;;5068306;28;20048;-62
2023/08/14 09:44:24;;;;;;;4.30;2.60;;;25.80;99.90;;;;;;5070034;28;20056;-62
2023/08/14 09:46:59;;;;;;;3.20;2.75;;;26.00;99.90;;;;;;5064322;28;20146;-62
2023/08/14 09:49:32;;;;;;;3.75;2.53;;;26.20;99.90;;;;;;5065287;28;20047;-61
2023/08/14 09:52:06;;;;;;;2.75;2.50;;;26.40;99.90;;;;;;5061668;28;20055;-62
2023/08/14 09:54:38;;;;;;;3.03;2.72;;;26.70;99.90;;;;;;5068202;28;20072;-62
2023/08/14 09:57:10;;;;;;;3.43;2.60;;;26.80;99.90;;;;;;5032596;28;20045;-62
2023/08/14 09:59:37;;;;;;;4.18;2.60;;;26.80;99.90;;;;;;5070058;28;20306;-62
2023/08/14 10:02:14;;;;;;;3.88;2.65;;;26.70;99.90;;;;;;5067318;28;20526;-62
2023/08/14 10:04:46;;;;;;;2.95;2.53;;;26.80;99.90;;;;;;5067419;28;20056;-62
2023/08/14 10:07:14;;;;;;;3.58;2.50;;;26.70;99.90;;;;;;5068400;28;20041;-62
2023/08/14 10:09:51;;;;;;;2.67;2.25;;;26.80;99.90;;;;;;5052395;28;20123;-62
2023/08/14 10:12:22;;;;;;;2.50;2.30;;;26.90;99.90;;;;;;5070171;28;20063;-62
2023/08/14 10:15:08;;;;;;;5.20;2.75;;;26.90;99.90;;;;;;5064964;28;20048;-62
2023/08/14 10:17:58;;;;;;;3.03;2.67;;;26.90;99.90;;;;;;5070285;28;20419;-62
2023/08/14 10:20:36;;;;;;;5.63;2.80;;;26.80;99.90;;;;;;5061797;28;20412;-62
2023/08/14 10:23:09;;;;;;;3.72;3.08;;;26.80;99.90;;;;;;5065784;28;20060;-62
2023/08/14 10:25:46;;;;;;;4.78;3.10;;;26.70;99.90;;;;;;5067772;28;20036;-62
2023/08/14 10:28:19;;;;;;;4.88;3.13;;;26.70;99.90;;;;;;5066324;28;20115;-62
2023/08/14 10:30:51;;;;;;;3.55;3.25;;;26.80;99.90;;;;;;5064057;28;20044;-62
2023/08/14 10:33:23;;;;;;;4.40;3.17;;;26.80;99.90;;;;;;5069314;28;20047;-62
2023/08/14 10:35:58;;;;;;;5.17;3.37;;;26.90;99.90;;;;;;5071253;28;20055;-62
2023/08/14 10:38:46;;;;;;;4.03;3.30;;;26.90;99.90;;;;;;5069195;28;20040;-62
2023/08/14 10:41:18;;;;;;;5.05;3.50;;;27.00;99.90;;;;;;5069216;28;20040;-62
2023/08/14 10:43:52;;;;;;;4.72;3.67;;;27.10;99.90;;;;;;5068542;28;20051;-62
2023/08/14 10:46:20;;;;;;;4.43;3.45;;;27.20;99.90;;;;;;5070352;28;20032;-62
2023/08/14 10:48:51;;;;;;;4.28;3.60;;;27.20;99.90;;;;;;5069618;28;20060;-62
2023/08/14 10:51:23;;;;;;;4.78;4.03;;;27.30;99.90;;;;;;5052747;28;20060;-62
2023/08/14 10:54:08;;;;;;;4.35;3.47;;;27.30;99.90;;;;;;5069413;28;20063;-61
2023/08/14 10:56:48;;;;;;;4.65;3.33;;;27.40;99.90;;;;;;5051331;28;20127;-62
2023/08/14 10:59:26;;;;;;;4.55;3.67;;;27.50;99.90;;;;;;5058195;28;20032;-62
2023/08/14 11:02:13;;;;;;;4.78;3.65;;;27.50;99.90;;;;;;5064596;28;20063;-62
2023/08/14 11:04:59;;;;;;;3.65;3.05;;;27.40;99.90;;;;;;5069790;28;20043;-62
2023/08/14 11:07:33;;;;;;;4.20;3.58;;;27.40;99.90;;;;;;5051975;28;20407;-62
2023/08/14 11:10:04;;;;;;;3.50;3.20;;;27.50;99.90;;;;;;5068194;28;20040;-62
2023/08/14 11:12:36;;;;;;;4.22;3.75;;;27.50;99.90;;;;;;5065122;28;20048;-62
2023/08/14 11:15:05;;;;;;;3.97;3.58;;;27.60;99.90;;;;;;5065338;28;20068;-62
2023/08/14 11:17:37;;;;;;;4.20;3.13;;;27.70;99.90;;;;;;5066303;28;20046;-62
2023/08/14 11:20:10;;;;;;;3.78;3.47;;;27.80;99.90;;;;;;5067653;28;20054;-62
2023/08/14 11:22:44;;;;;;;4.28;3.40;;;27.80;99.90;;;;;;5067309;28;20055;-62
2023/08/14 11:25:16;;;;;;;3.78;3.08;;;27.80;99.90;;;;;;5068928;28;20115;-62
2023/08/14 11:27:50;;;;;;;4.05;3.50;;;27.80;99.90;;;;;;5066200;28;20041;-62
2023/08/14 11:30:24;;;;;;;4.68;3.78;;;27.70;99.90;;;;;;5049617;28;20051;-62
2023/08/14 11:32:57;;;;;;;3.53;3.22;;;27.70;99.90;;;;;;5068217;28;20500;-62
2023/08/14 11:35:29;;;;;;;5.72;4.43;;;27.70;99.90;;;;;;5066361;28;20040;-62
2023/08/14 11:38:01;;;;;;;6.32;4.47;;;27.80;99.90;;;;;;5068252;28;20535;-62
2023/08/14 11:40:33;;;;;;;5.85;3.70;;;27.90;99.90;;;;;;5066782;28;20049;-62
2023/08/14 11:43:05;;;;;;;5.68;4.40;;;27.90;99.90;;;;;;5065273;28;20049;-62
2023/08/14 11:45:38;;;;;;;5.25;4.18;;;28.00;99.90;;;;;;5067778;28;20039;-62
2023/08/14 11:48:10;;;;;;;4.97;3.78;;;28.00;99.90;;;;;;5047465;28;20044;-62
2023/08/14 11:50:47;;;;;;;6.70;3.70;;;28.00;99.90;;;;;;5050902;28;20044;-62
2023/08/14 11:53:19;;;;;;;6.97;3.95;;;28.00;99.90;;;;;;5065874;28;20133;-62
2023/08/14 11:55:51;;;;;;;7.47;3.97;;;28.10;99.90;;;;;;5064579;28;20040;-62
2023/08/14 11:58:18;;;;;;;5.75;3.65;;;28.10;99.90;;;;;;5051550;28;20032;-62
2023/08/14 12:00:51;;;;;;;5.82;3.80;;;28.10;99.90;;;;;;5053220;28;20041;-62
2023/08/14 12:03:23;;;;;;;7.35;3.65;;;28.20;99.90;;;;;;5070969;28;20040;-62
2023/08/14 12:06:08;;;;;;;4.93;3.17;;;28.20;99.90;;;;;;5073707;28;20060;-62
2023/08/14 12:08:41;;;;;;;5.47;3.80;;;28.40;99.90;;;;;;5071700;28;20041;-62
2023/08/14 12:11:08;;;;;;;5.05;3.80;;;28.50;99.90;;;;;;5073737;28;20059;-62
2023/08/14 12:13:39;;;;;;;3.95;3.55;;;28.50;99.90;;;;;;5071848;28;20046;-62
2023/08/14 12:16:11;;;;;;;7.65;3.97;;;28.60;99.90;;;;;;5052502;28;20054;-62
2023/08/14 12:18:46;;;;;;;4.10;3.72;;;28.60;99.90;;;;;;5072640;28;20071;-62
2023/08/14 12:21:17;;;;;;;5.78;3.78;;;28.70;99.90;;;;;;5069760;28;20072;-62
2023/08/14 12:23:53;;;;;;;6.68;4.00;;;28.80;99.90;;;;;;5056946;28;20120;-62
2023/08/14 12:26:26;;;;;;;4.75;3.75;;;28.90;99.90;;;;;;5069424;28;20055;-62
2023/08/14 12:28:58;;;;;;;5.63;3.65;;;29.00;99.90;;;;;;5070957;28;20035;-62
2023/08/14 12:31:29;;;;;;;4.22;3.80;;;29.10;99.90;;;;;;5072722;28;20051;-62
2023/08/14 12:34:01;;;;;;;6.07;4.25;;;29.20;99.90;;;;;;5053724;28;20045;-62
2023/08/14 12:36:34;;;;;;;5.00;3.63;;;29.20;99.90;;;;;;5068920;28;20072;-62
2023/08/14 12:39:06;;;;;;;6.93;4.00;;;29.10;99.90;;;;;;5054795;28;20057;-62
2023/08/14 12:41:38;;;;;;;5.53;3.83;;;29.10;99.90;;;;;;5070542;28;20520;-62
2023/08/14 12:44:10;;;;;;;4.22;3.78;;;29.10;99.90;;;;;;5073115;28;20033;-62
2023/08/14 12:46:42;;;;;;;4.07;3.67;;;29.10;99.90;;;;;;5068576;28;20047;-62
2023/08/14 12:49:13;;;;;;;5.10;3.85;;;29.30;99.90;;;;;;5055007;28;20131;-62
2023/08/14 12:51:46;;;;;;;4.40;3.50;;;29.40;99.90;;;;;;5055038;28;20040;-62
2023/08/14 12:54:18;;;;;;;6.22;3.88;;;29.50;99.90;;;;;;5069363;28;20409;-62
2023/08/14 12:56:49;;;;;;;4.10;3.70;;;29.60;99.90;;;;;;5049529;28;20041;-62
2023/08/14 12:59:21;;;;;;;7.30;3.42;;;29.60;99.90;;;;;;5071456;28;20036;-62
2023/08/14 13:01:53;;;;;;;5.15;3.67;;;29.70;99.90;;;;;;5070348;28;20055;-62
2023/08/14 13:04:25;;;;;;;5.95;3.90;;;29.90;99.90;;;;;;5070370;28;20037;-62
2023/08/14 13:06:58;;;;;;;4.30;3.20;;;30.00;99.90;;;;;;5069930;28;20051;-62
2023/08/14 13:09:25;;;;;;;4.30;3.65;;;30.10;99.90;;;;;;5064203;28;20045;-62
2023/08/14 13:11:57;;;;;;;5.68;3.30;;;30.20;99.90;;;;;;5049902;28;20056;-62
2023/08/14 13:14:28;;;;;;;4.20;3.80;;;30.30;99.90;;;;;;5054079;28;20037;-62